sensor_id;sensor_type;location;lat;lon;timestamp;temperature;humidity
70456;DHT22;57916;51.996;5.180;2022-11-20T00:01:10;3.70;62.50
70456;DHT22;57916;51.996;5.180;2022-11-20T00:03:37;3.70;62.60
70456;DHT22;57916;51.996;5.180;2022-11-20T00:06:06;3.70;62.60
70456;DHT22;57916;51.996;5.180;2022-11-20T00:08:33;3.70;62.50
70456;DHT22;57916;51.996;5.180;2022-11-20T00:13:46;3.60;62.40
70456;DHT22;57916;51.996;5.180;2022-11-20T00:16:14;3.60;62.50
70456;DHT22;57916;51.996;5.180;2022-11-20T00:18:42;3.60;62.60
70456;DHT22;57916;51.996;5.180;2022-11-20T00:21:14;3.50;62.20
70456;DHT22;57916;51.996;5.180;2022-11-20T00:23:42;3.60;62.10
70456;DHT22;57916;51.996;5.180;2022-11-20T00:26:12;3.50;62.10
70456;DHT22;57916;51.996;5.180;2022-11-20T00:28:39;3.50;62.30
70456;DHT22;57916;51.996;5.180;2022-11-20T00:31:10;3.50;62.10
70456;DHT22;57916;51.996;5.180;2022-11-20T00:33:37;3.50;62.30
70456;DHT22;57916;51.996;5.180;2022-11-20T00:36:06;3.50;62.10
70456;DHT22;57916;51.996;5.180;2022-11-20T00:38:34;3.50;61.80
70456;DHT22;57916;51.996;5.180;2022-11-20T00:41:07;3.40;61.70
70456;DHT22;57916;51.996;5.180;2022-11-20T00:43:36;3.40;62.90
70456;DHT22;57916;51.996;5.180;2022-11-20T00:46:04;3.40;62.20
70456;DHT22;57916;51.996;5.180;2022-11-20T00:48:32;3.40;62.50
70456;DHT22;57916;51.996;5.180;2022-11-20T00:50:59;3.40;62.60
70456;DHT22;57916;51.996;5.180;2022-11-20T00:53:27;3.40;62.60
70456;DHT22;57916;51.996;5.180;2022-11-20T00:56:02;3.40;62.70
70456;DHT22;57916;51.996;5.180;2022-11-20T00:58:34;3.40;62.60
70456;DHT22;57916;51.996;5.180;2022-11-20T01:01:07;3.40;62.60
70456;DHT22;57916;51.996;5.180;2022-11-20T01:03:37;3.40;62.80
70456;DHT22;57916;51.996;5.180;2022-11-20T01:06:09;3.40;62.80
70456;DHT22;57916;51.996;5.180;2022-11-20T01:08:36;3.40;63.00
70456;DHT22;57916;51.996;5.180;2022-11-20T01:11:08;3.40;63.00
70456;DHT22;57916;51.996;5.180;2022-11-20T01:13:35;3.30;63.10
70456;DHT22;57916;51.996;5.180;2022-11-20T01:16:12;3.30;63.50
70456;DHT22;57916;51.996;5.180;2022-11-20T01:18:41;3.40;63.40
70456;DHT22;57916;51.996;5.180;2022-11-20T01:21:12;3.40;62.90
70456;DHT22;57916;51.996;5.180;2022-11-20T01:23:41;3.50;62.80
70456;DHT22;57916;51.996;5.180;2022-11-20T01:26:13;3.40;62.70
70456;DHT22;57916;51.996;5.180;2022-11-20T01:28:41;3.50;62.90
70456;DHT22;57916;51.996;5.180;2022-11-20T01:33:47;3.50;62.70
70456;DHT22;57916;51.996;5.180;2022-11-20T01:36:15;3.50;62.80
70456;DHT22;57916;51.996;5.180;2022-11-20T01:38:42;3.50;62.60
70456;DHT22;57916;51.996;5.180;2022-11-20T01:41:11;3.40;62.50
70456;DHT22;57916;51.996;5.180;2022-11-20T01:43:59;3.50;62.50
70456;DHT22;57916;51.996;5.180;2022-11-20T01:46:26;3.50;62.10
70456;DHT22;57916;51.996;5.180;2022-11-20T01:51:38;3.40;61.70
70456;DHT22;57916;51.996;5.180;2022-11-20T01:54:09;3.40;61.70
70456;DHT22;57916;51.996;5.180;2022-11-20T01:56:41;3.30;61.70
70456;DHT22;57916;51.996;5.180;2022-11-20T01:59:11;3.30;62.00
70456;DHT22;57916;51.996;5.180;2022-11-20T02:01:40;3.30;61.70
70456;DHT22;57916;51.996;5.180;2022-11-20T02:04:08;3.30;61.60
70456;DHT22;57916;51.996;5.180;2022-11-20T02:06:43;3.20;61.60
70456;DHT22;57916;51.996;5.180;2022-11-20T02:09:12;3.30;61.90
70456;DHT22;57916;51.996;5.180;2022-11-20T02:11:40;3.30;62.00
70456;DHT22;57916;51.996;5.180;2022-11-20T02:14:07;3.20;62.10
70456;DHT22;57916;51.996;5.180;2022-11-20T02:16:37;3.20;62.10
70456;DHT22;57916;51.996;5.180;2022-11-20T02:19:09;3.30;61.80
70456;DHT22;57916;51.996;5.180;2022-11-20T02:24:26;3.30;61.90
70456;DHT22;57916;51.996;5.180;2022-11-20T02:27:00;3.20;61.80
70456;DHT22;57916;51.996;5.180;2022-11-20T02:34:49;3.00;62.40
70456;DHT22;57916;51.996;5.180;2022-11-20T02:37:16;3.00;62.00
70456;DHT22;57916;51.996;5.180;2022-11-20T02:39:46;3.00;62.50
70456;DHT22;57916;51.996;5.180;2022-11-20T02:42:14;3.00;62.40
70456;DHT22;57916;51.996;5.180;2022-11-20T02:44:41;2.80;62.00
70456;DHT22;57916;51.996;5.180;2022-11-20T02:47:08;2.70;62.10
70456;DHT22;57916;51.996;5.180;2022-11-20T02:49:35;2.70;61.90
70456;DHT22;57916;51.996;5.180;2022-11-20T02:52:02;2.60;61.60
70456;DHT22;57916;51.996;5.180;2022-11-20T02:54:29;2.50;62.00
70456;DHT22;57916;51.996;5.180;2022-11-20T02:56:56;2.40;62.10
70456;DHT22;57916;51.996;5.180;2022-11-20T02:59:23;2.40;62.70
70456;DHT22;57916;51.996;5.180;2022-11-20T03:01:50;2.40;62.90
70456;DHT22;57916;51.996;5.180;2022-11-20T03:04:17;2.40;63.00
70456;DHT22;57916;51.996;5.180;2022-11-20T03:06:44;2.50;62.90
70456;DHT22;57916;51.996;5.180;2022-11-20T03:09:11;2.60;62.90
70456;DHT22;57916;51.996;5.180;2022-11-20T03:11:38;2.70;62.90
70456;DHT22;57916;51.996;5.180;2022-11-20T03:14:05;2.70;62.80
70456;DHT22;57916;51.996;5.180;2022-11-20T03:16:32;2.70;62.80
70456;DHT22;57916;51.996;5.180;2022-11-20T03:19:00;2.70;62.90
70456;DHT22;57916;51.996;5.180;2022-11-20T03:21:27;2.70;63.10
70456;DHT22;57916;51.996;5.180;2022-11-20T03:23:54;2.80;63.20
70456;DHT22;57916;51.996;5.180;2022-11-20T03:26:23;2.80;63.10
70456;DHT22;57916;51.996;5.180;2022-11-20T03:28:58;2.90;63.10
70456;DHT22;57916;51.996;5.180;2022-11-20T03:31:28;2.90;63.30
70456;DHT22;57916;51.996;5.180;2022-11-20T03:33:58;2.90;63.20
70456;DHT22;57916;51.996;5.180;2022-11-20T03:36:26;2.90;63.00
70456;DHT22;57916;51.996;5.180;2022-11-20T03:38:56;2.90;62.70
70456;DHT22;57916;51.996;5.180;2022-11-20T03:41:26;3.00;62.70
70456;DHT22;57916;51.996;5.180;2022-11-20T03:43:56;3.00;62.80
70456;DHT22;57916;51.996;5.180;2022-11-20T03:46:24;3.00;62.70
70456;DHT22;57916;51.996;5.180;2022-11-20T03:48:51;3.00;62.60
70456;DHT22;57916;51.996;5.180;2022-11-20T03:53:51;3.00;62.50
70456;DHT22;57916;51.996;5.180;2022-11-20T03:56:22;2.90;61.60
70456;DHT22;57916;51.996;5.180;2022-11-20T03:58:49;2.80;61.10
70456;DHT22;57916;51.996;5.180;2022-11-20T04:01:18;2.80;61.60
70456;DHT22;57916;51.996;5.180;2022-11-20T04:03:46;2.80;61.60
70456;DHT22;57916;51.996;5.180;2022-11-20T04:06:19;2.70;61.40
70456;DHT22;57916;51.996;5.180;2022-11-20T04:08:46;2.70;61.80
70456;DHT22;57916;51.996;5.180;2022-11-20T04:13:53;2.70;62.10
70456;DHT22;57916;51.996;5.180;2022-11-20T04:16:22;2.70;62.20
70456;DHT22;57916;51.996;5.180;2022-11-20T04:18:56;2.70;62.10
70456;DHT22;57916;51.996;5.180;2022-11-20T04:21:23;2.70;62.10
70456;DHT22;57916;51.996;5.180;2022-11-20T04:23:51;2.80;62.60
70456;DHT22;57916;51.996;5.180;2022-11-20T04:26:20;2.80;62.60
70456;DHT22;57916;51.996;5.180;2022-11-20T04:28:47;2.80;62.70
70456;DHT22;57916;51.996;5.180;2022-11-20T04:31:17;2.80;62.90
70456;DHT22;57916;51.996;5.180;2022-11-20T04:33:45;2.70;62.80
70456;DHT22;57916;51.996;5.180;2022-11-20T04:36:16;2.80;62.90
70456;DHT22;57916;51.996;5.180;2022-11-20T04:38:43;2.70;62.70
70456;DHT22;57916;51.996;5.180;2022-11-20T04:41:19;2.80;62.60
70456;DHT22;57916;51.996;5.180;2022-11-20T04:43:47;2.70;62.80
70456;DHT22;57916;51.996;5.180;2022-11-20T04:46:19;2.70;62.70
70456;DHT22;57916;51.996;5.180;2022-11-20T04:48:47;2.70;62.40
70456;DHT22;57916;51.996;5.180;2022-11-20T04:51:14;2.70;62.10
70456;DHT22;57916;51.996;5.180;2022-11-20T04:53:41;2.70;62.10
70456;DHT22;57916;51.996;5.180;2022-11-20T04:56:09;2.60;62.20
70456;DHT22;57916;51.996;5.180;2022-11-20T04:58:37;2.70;62.80
70456;DHT22;57916;51.996;5.180;2022-11-20T05:03:32;2.60;63.00
70456;DHT22;57916;51.996;5.180;2022-11-20T05:06:06;2.60;63.10
70456;DHT22;57916;51.996;5.180;2022-11-20T05:08:33;2.60;63.20
70456;DHT22;57916;51.996;5.180;2022-11-20T05:11:06;2.60;63.30
70456;DHT22;57916;51.996;5.180;2022-11-20T05:13:33;2.50;62.90
70456;DHT22;57916;51.996;5.180;2022-11-20T05:16:09;2.50;62.90
70456;DHT22;57916;51.996;5.180;2022-11-20T05:18:37;2.60;63.00
70456;DHT22;57916;51.996;5.180;2022-11-20T05:21:05;2.50;62.70
70456;DHT22;57916;51.996;5.180;2022-11-20T05:23:32;2.50;62.50
70456;DHT22;57916;51.996;5.180;2022-11-20T05:26:00;2.50;62.20
70456;DHT22;57916;51.996;5.180;2022-11-20T05:28:28;2.40;62.40
70456;DHT22;57916;51.996;5.180;2022-11-20T05:30:55;2.40;63.00
70456;DHT22;57916;51.996;5.180;2022-11-20T05:33:22;2.40;62.30
70456;DHT22;57916;51.996;5.180;2022-11-20T05:35:49;2.40;62.50
70456;DHT22;57916;51.996;5.180;2022-11-20T05:38:16;2.50;62.50
70456;DHT22;57916;51.996;5.180;2022-11-20T05:40:43;2.50;62.30
70456;DHT22;57916;51.996;5.180;2022-11-20T05:43:10;2.40;62.20
70456;DHT22;57916;51.996;5.180;2022-11-20T05:45:37;2.40;62.30
70456;DHT22;57916;51.996;5.180;2022-11-20T05:48:04;2.50;62.30
70456;DHT22;57916;51.996;5.180;2022-11-20T05:50:31;2.50;62.20
70456;DHT22;57916;51.996;5.180;2022-11-20T05:52:59;2.50;62.00
70456;DHT22;57916;51.996;5.180;2022-11-20T05:55:26;2.50;61.90
70456;DHT22;57916;51.996;5.180;2022-11-20T05:57:54;2.50;62.30
70456;DHT22;57916;51.996;5.180;2022-11-20T06:00:22;2.50;62.50
70456;DHT22;57916;51.996;5.180;2022-11-20T06:02:49;2.50;62.40
70456;DHT22;57916;51.996;5.180;2022-11-20T06:05:16;2.50;62.50
70456;DHT22;57916;51.996;5.180;2022-11-20T06:07:43;2.50;62.60
70456;DHT22;57916;51.996;5.180;2022-11-20T06:10:10;2.50;62.80
70456;DHT22;57916;51.996;5.180;2022-11-20T06:12:37;2.50;63.00
70456;DHT22;57916;51.996;5.180;2022-11-20T06:15:05;2.50;63.20
70456;DHT22;57916;51.996;5.180;2022-11-20T06:17:32;2.50;63.30
70456;DHT22;57916;51.996;5.180;2022-11-20T06:19:59;2.40;63.10
70456;DHT22;57916;51.996;5.180;2022-11-20T06:22:26;2.40;63.20
70456;DHT22;57916;51.996;5.180;2022-11-20T06:24:53;2.40;63.20
70456;DHT22;57916;51.996;5.180;2022-11-20T06:27:19;2.50;63.20
70456;DHT22;57916;51.996;5.180;2022-11-20T06:29:46;2.50;63.30
70456;DHT22;57916;51.996;5.180;2022-11-20T06:32:13;2.40;63.00
70456;DHT22;57916;51.996;5.180;2022-11-20T06:34:40;2.40;63.20
70456;DHT22;57916;51.996;5.180;2022-11-20T06:37:07;2.50;63.40
70456;DHT22;57916;51.996;5.180;2022-11-20T06:39:34;2.50;63.10
70456;DHT22;57916;51.996;5.180;2022-11-20T06:42:01;2.50;63.00
70456;DHT22;57916;51.996;5.180;2022-11-20T06:44:28;2.50;62.80
70456;DHT22;57916;51.996;5.180;2022-11-20T06:46:55;2.50;62.90
70456;DHT22;57916;51.996;5.180;2022-11-20T06:49:22;2.50;62.90
70456;DHT22;57916;51.996;5.180;2022-11-20T06:51:49;2.50;62.60
70456;DHT22;57916;51.996;5.180;2022-11-20T06:54:16;2.50;62.40
70456;DHT22;57916;51.996;5.180;2022-11-20T06:56:49;2.50;62.60
70456;DHT22;57916;51.996;5.180;2022-11-20T06:59:16;2.50;63.20
70456;DHT22;57916;51.996;5.180;2022-11-20T07:01:43;2.50;63.00
70456;DHT22;57916;51.996;5.180;2022-11-20T07:04:09;2.50;63.10
70456;DHT22;57916;51.996;5.180;2022-11-20T07:06:36;2.50;63.00
70456;DHT22;57916;51.996;5.180;2022-11-20T07:09:03;2.50;63.20
70456;DHT22;57916;51.996;5.180;2022-11-20T07:11:37;2.40;63.90
70456;DHT22;57916;51.996;5.180;2022-11-20T07:14:03;2.40;63.80
70456;DHT22;57916;51.996;5.180;2022-11-20T07:16:30;2.50;63.90
70456;DHT22;57916;51.996;5.180;2022-11-20T07:18:58;2.50;64.20
70456;DHT22;57916;51.996;5.180;2022-11-20T07:21:24;2.50;64.10
70456;DHT22;57916;51.996;5.180;2022-11-20T07:23:51;2.60;63.80
70456;DHT22;57916;51.996;5.180;2022-11-20T07:26:20;2.50;63.90
70456;DHT22;57916;51.996;5.180;2022-11-20T07:28:47;2.50;64.20
70456;DHT22;57916;51.996;5.180;2022-11-20T07:31:14;2.60;64.10
70456;DHT22;57916;51.996;5.180;2022-11-20T07:33:45;2.50;64.20
70456;DHT22;57916;51.996;5.180;2022-11-20T07:36:12;2.50;64.20
70456;DHT22;57916;51.996;5.180;2022-11-20T07:38:39;2.50;64.30
70456;DHT22;57916;51.996;5.180;2022-11-20T07:41:06;2.50;64.40
70456;DHT22;57916;51.996;5.180;2022-11-20T07:43:33;2.50;64.20
70456;DHT22;57916;51.996;5.180;2022-11-20T07:46:06;2.50;64.20
70456;DHT22;57916;51.996;5.180;2022-11-20T07:48:33;2.40;64.30
70456;DHT22;57916;51.996;5.180;2022-11-20T07:51:00;2.30;64.70
70456;DHT22;57916;51.996;5.180;2022-11-20T07:53:27;2.30;65.40
70456;DHT22;57916;51.996;5.180;2022-11-20T07:55:54;2.30;66.10
70456;DHT22;57916;51.996;5.180;2022-11-20T07:58:21;2.30;66.60
70456;DHT22;57916;51.996;5.180;2022-11-20T08:00:48;2.30;66.80
70456;DHT22;57916;51.996;5.180;2022-11-20T08:03:15;2.30;67.30
70456;DHT22;57916;51.996;5.180;2022-11-20T08:05:50;2.30;67.50
70456;DHT22;57916;51.996;5.180;2022-11-20T08:08:17;2.30;67.80
70456;DHT22;57916;51.996;5.180;2022-11-20T08:10:44;2.40;68.20
70456;DHT22;57916;51.996;5.180;2022-11-20T08:13:10;2.30;68.00
70456;DHT22;57916;51.996;5.180;2022-11-20T08:15:56;2.40;68.40
70456;DHT22;57916;51.996;5.180;2022-11-20T08:18:23;2.40;68.60
70456;DHT22;57916;51.996;5.180;2022-11-20T08:21:01;2.50;68.90
70456;DHT22;57916;51.996;5.180;2022-11-20T08:23:28;2.50;69.00
70456;DHT22;57916;51.996;5.180;2022-11-20T08:25:55;2.60;69.20
70456;DHT22;57916;51.996;5.180;2022-11-20T08:28:22;2.60;69.20
70456;DHT22;57916;51.996;5.180;2022-11-20T08:30:49;2.60;69.50
70456;DHT22;57916;51.996;5.180;2022-11-20T08:33:17;2.70;69.30
70456;DHT22;57916;51.996;5.180;2022-11-20T08:35:44;2.70;69.40
70456;DHT22;57916;51.996;5.180;2022-11-20T08:38:11;2.70;69.40
70456;DHT22;57916;51.996;5.180;2022-11-20T08:40:38;2.80;69.40
70456;DHT22;57916;51.996;5.180;2022-11-20T08:43:05;2.80;69.30
70456;DHT22;57916;51.996;5.180;2022-11-20T08:45:32;2.80;69.40
70456;DHT22;57916;51.996;5.180;2022-11-20T08:48:02;2.90;69.40
70456;DHT22;57916;51.996;5.180;2022-11-20T08:50:30;3.00;69.20
70456;DHT22;57916;51.996;5.180;2022-11-20T08:53:04;3.00;69.30
70456;DHT22;57916;51.996;5.180;2022-11-20T08:55:31;3.00;69.10
70456;DHT22;57916;51.996;5.180;2022-11-20T08:58:02;3.10;68.90
70456;DHT22;57916;51.996;5.180;2022-11-20T09:00:30;3.10;68.90
70456;DHT22;57916;51.996;5.180;2022-11-20T09:02:56;3.20;68.90
70456;DHT22;57916;51.996;5.180;2022-11-20T09:05:25;3.20;68.80
70456;DHT22;57916;51.996;5.180;2022-11-20T09:07:52;3.30;68.80
70456;DHT22;57916;51.996;5.180;2022-11-20T09:10:19;3.40;68.90
70456;DHT22;57916;51.996;5.180;2022-11-20T09:12:51;3.50;68.80
70456;DHT22;57916;51.996;5.180;2022-11-20T09:15:19;3.60;68.50
70456;DHT22;57916;51.996;5.180;2022-11-20T09:17:53;3.60;68.20
70456;DHT22;57916;51.996;5.180;2022-11-20T09:20:20;3.70;68.90
70456;DHT22;57916;51.996;5.180;2022-11-20T09:22:47;3.70;68.20
70456;DHT22;57916;51.996;5.180;2022-11-20T09:25:14;3.80;68.00
70456;DHT22;57916;51.996;5.180;2022-11-20T09:27:41;3.90;67.90
70456;DHT22;57916;51.996;5.180;2022-11-20T09:30:11;3.90;67.90
70456;DHT22;57916;51.996;5.180;2022-11-20T09:32:39;4.10;67.90
70456;DHT22;57916;51.996;5.180;2022-11-20T09:35:06;4.20;67.50
70456;DHT22;57916;51.996;5.180;2022-11-20T09:37:34;4.20;67.30
70456;DHT22;57916;51.996;5.180;2022-11-20T09:40:01;4.30;67.30
70456;DHT22;57916;51.996;5.180;2022-11-20T09:53:55;4.30;67.20
70456;DHT22;57916;51.996;5.180;2022-11-20T09:56:26;4.30;67.30
70456;DHT22;57916;51.996;5.180;2022-11-20T09:58:58;4.30;67.60
70456;DHT22;57916;51.996;5.180;2022-11-20T10:01:30;4.30;67.60
70456;DHT22;57916;51.996;5.180;2022-11-20T10:04:15;4.30;67.90
70456;DHT22;57916;51.996;5.180;2022-11-20T10:07:23;4.30;67.90
70456;DHT22;57916;51.996;5.180;2022-11-20T10:09:59;4.40;68.00
70456;DHT22;57916;51.996;5.180;2022-11-20T10:29:12;4.80;67.50
70456;DHT22;57916;51.996;5.180;2022-11-20T10:31:48;4.80;67.70
70456;DHT22;57916;51.996;5.180;2022-11-20T10:37:00;4.80;67.70
70456;DHT22;57916;51.996;5.180;2022-11-20T10:42:15;4.90;67.90
70456;DHT22;57916;51.996;5.180;2022-11-20T10:44:52;4.90;68.10
70456;DHT22;57916;51.996;5.180;2022-11-20T10:47:33;5.00;69.20
70456;DHT22;57916;51.996;5.180;2022-11-20T10:50:09;5.00;68.10
70456;DHT22;57916;51.996;5.180;2022-11-20T10:53:03;5.00;68.20
70456;DHT22;57916;51.996;5.180;2022-11-20T10:58:13;5.00;68.50
70456;DHT22;57916;51.996;5.180;2022-11-20T11:00:40;5.10;68.60
70456;DHT22;57916;51.996;5.180;2022-11-20T11:03:28;5.10;68.70
70456;DHT22;57916;51.996;5.180;2022-11-20T11:08:36;5.20;68.70
70456;DHT22;57916;51.996;5.180;2022-11-20T11:11:33;5.30;68.70
70456;DHT22;57916;51.996;5.180;2022-11-20T11:14:13;5.30;68.70
70456;DHT22;57916;51.996;5.180;2022-11-20T11:16:55;5.20;68.60
70456;DHT22;57916;51.996;5.180;2022-11-20T11:19:23;5.20;68.80
70456;DHT22;57916;51.996;5.180;2022-11-20T11:21:53;5.30;70.00
70456;DHT22;57916;51.996;5.180;2022-11-20T11:24:25;5.30;69.40
70456;DHT22;57916;51.996;5.180;2022-11-20T11:27:14;5.30;69.50
70456;DHT22;57916;51.996;5.180;2022-11-20T11:29:45;5.40;69.80
70456;DHT22;57916;51.996;5.180;2022-11-20T11:32:18;5.40;70.10
70456;DHT22;57916;51.996;5.180;2022-11-20T11:34:45;5.40;70.30
70456;DHT22;57916;51.996;5.180;2022-11-20T11:37:27;5.40;70.60
70456;DHT22;57916;51.996;5.180;2022-11-20T11:39:59;5.40;70.80
70456;DHT22;57916;51.996;5.180;2022-11-20T11:43:02;5.50;70.90
70456;DHT22;57916;51.996;5.180;2022-11-20T11:45:30;5.50;71.10
70456;DHT22;57916;51.996;5.180;2022-11-20T11:48:00;5.50;71.10
70456;DHT22;57916;51.996;5.180;2022-11-20T11:50:29;5.50;71.00
70456;DHT22;57916;51.996;5.180;2022-11-20T11:53:13;5.50;71.00
70456;DHT22;57916;51.996;5.180;2022-11-20T12:06:58;5.50;72.00
70456;DHT22;57916;51.996;5.180;2022-11-20T12:09:49;5.50;72.10
70456;DHT22;57916;51.996;5.180;2022-11-20T12:12:22;5.50;72.30
70456;DHT22;57916;51.996;5.180;2022-11-20T12:14:53;5.50;72.50
70456;DHT22;57916;51.996;5.180;2022-11-20T12:17:22;5.60;72.70
70456;DHT22;57916;51.996;5.180;2022-11-20T12:19:48;5.60;72.80
70456;DHT22;57916;51.996;5.180;2022-11-20T12:25:08;5.70;72.80
70456;DHT22;57916;51.996;5.180;2022-11-20T12:39:26;5.90;73.40
70456;DHT22;57916;51.996;5.180;2022-11-20T12:42:23;5.90;73.30
70456;DHT22;57916;51.996;5.180;2022-11-20T12:59:02;6.10;73.60
70456;DHT22;57916;51.996;5.180;2022-11-20T13:06:55;6.20;73.50
70456;DHT22;57916;51.996;5.180;2022-11-20T13:09:24;6.20;73.40
70456;DHT22;57916;51.996;5.180;2022-11-20T13:12:13;6.20;73.20
70456;DHT22;57916;51.996;5.180;2022-11-20T13:17:33;6.10;73.40
70456;DHT22;57916;51.996;5.180;2022-11-20T13:20:05;6.10;73.30
70456;DHT22;57916;51.996;5.180;2022-11-20T13:22:47;6.10;73.30
70456;DHT22;57916;51.996;5.180;2022-11-20T13:27:51;6.10;73.30
70456;DHT22;57916;51.996;5.180;2022-11-20T13:30:20;6.20;73.20
70456;DHT22;57916;51.996;5.180;2022-11-20T13:33:04;6.20;73.30
70456;DHT22;57916;51.996;5.180;2022-11-20T13:40:28;6.20;73.50
70456;DHT22;57916;51.996;5.180;2022-11-20T13:45:32;6.30;73.60
70456;DHT22;57916;51.996;5.180;2022-11-20T13:48:04;6.30;73.60
70456;DHT22;57916;51.996;5.180;2022-11-20T13:50:39;6.30;73.50
70456;DHT22;57916;51.996;5.180;2022-11-20T14:01:46;6.20;74.00
70456;DHT22;57916;51.996;5.180;2022-11-20T14:04:25;6.20;74.30
70456;DHT22;57916;51.996;5.180;2022-11-20T14:06:54;6.20;74.40
70456;DHT22;57916;51.996;5.180;2022-11-20T14:09:32;6.20;74.40
70456;DHT22;57916;51.996;5.180;2022-11-20T14:12:01;6.20;74.60
70456;DHT22;57916;51.996;5.180;2022-11-20T14:14:30;6.20;74.60
70456;DHT22;57916;51.996;5.180;2022-11-20T14:17:08;6.20;74.70
70456;DHT22;57916;51.996;5.180;2022-11-20T14:19:35;6.20;74.80
70456;DHT22;57916;51.996;5.180;2022-11-20T14:22:22;6.20;75.00
70456;DHT22;57916;51.996;5.180;2022-11-20T14:27:41;6.20;75.20
70456;DHT22;57916;51.996;5.180;2022-11-20T14:30:18;6.30;75.40
70456;DHT22;57916;51.996;5.180;2022-11-20T14:32:46;6.30;75.40
70456;DHT22;57916;51.996;5.180;2022-11-20T14:35:35;6.30;75.30
70456;DHT22;57916;51.996;5.180;2022-11-20T14:38:02;6.30;75.40
70456;DHT22;57916;51.996;5.180;2022-11-20T14:40:34;6.30;75.50
70456;DHT22;57916;51.996;5.180;2022-11-20T14:43:25;6.40;75.60
70456;DHT22;57916;51.996;5.180;2022-11-20T14:48:47;6.40;75.80
70456;DHT22;57916;51.996;5.180;2022-11-20T14:51:32;6.40;75.80
70456;DHT22;57916;51.996;5.180;2022-11-20T14:54:19;6.40;75.80
70456;DHT22;57916;51.996;5.180;2022-11-20T14:57:03;6.50;75.90
70456;DHT22;57916;51.996;5.180;2022-11-20T14:59:33;6.50;76.00
70456;DHT22;57916;51.996;5.180;2022-11-20T15:02:04;6.50;76.10
70456;DHT22;57916;51.996;5.180;2022-11-20T15:04:31;6.50;76.00
70456;DHT22;57916;51.996;5.180;2022-11-20T15:06:59;6.50;76.00
70456;DHT22;57916;51.996;5.180;2022-11-20T15:09:26;6.50;76.00
70456;DHT22;57916;51.996;5.180;2022-11-20T15:12:04;6.50;76.10
70456;DHT22;57916;51.996;5.180;2022-11-20T15:14:31;6.50;76.00
70456;DHT22;57916;51.996;5.180;2022-11-20T15:17:01;6.50;76.10
70456;DHT22;57916;51.996;5.180;2022-11-20T15:19:28;6.50;76.10
70456;DHT22;57916;51.996;5.180;2022-11-20T15:21:55;6.50;76.20
70456;DHT22;57916;51.996;5.180;2022-11-20T15:24:22;6.40;76.20
70456;DHT22;57916;51.996;5.180;2022-11-20T15:26:49;6.40;76.30
70456;DHT22;57916;51.996;5.180;2022-11-20T15:29:16;6.40;76.50
70456;DHT22;57916;51.996;5.180;2022-11-20T15:31:45;6.40;76.50
70456;DHT22;57916;51.996;5.180;2022-11-20T15:34:13;6.50;76.50
70456;DHT22;57916;51.996;5.180;2022-11-20T15:36:41;6.40;76.60
70456;DHT22;57916;51.996;5.180;2022-11-20T15:39:09;6.40;76.80
70456;DHT22;57916;51.996;5.180;2022-11-20T15:41:36;6.50;76.80
70456;DHT22;57916;51.996;5.180;2022-11-20T15:44:05;6.50;76.90
70456;DHT22;57916;51.996;5.180;2022-11-20T15:46:33;6.50;76.90
70456;DHT22;57916;51.996;5.180;2022-11-20T15:49:05;6.50;76.70
70456;DHT22;57916;51.996;5.180;2022-11-20T15:51:36;6.60;76.70
70456;DHT22;57916;51.996;5.180;2022-11-20T15:54:12;6.60;76.60
70456;DHT22;57916;51.996;5.180;2022-11-20T15:56:39;6.60;76.60
70456;DHT22;57916;51.996;5.180;2022-11-20T15:59:06;6.60;76.60
70456;DHT22;57916;51.996;5.180;2022-11-20T16:01:33;6.60;76.70
70456;DHT22;57916;51.996;5.180;2022-11-20T16:04:01;6.60;76.70
70456;DHT22;57916;51.996;5.180;2022-11-20T16:06:28;6.60;76.70
70456;DHT22;57916;51.996;5.180;2022-11-20T16:08:54;6.70;76.80
70456;DHT22;57916;51.996;5.180;2022-11-20T16:11:21;6.70;76.60
70456;DHT22;57916;51.996;5.180;2022-11-20T16:13:48;6.70;76.50
70456;DHT22;57916;51.996;5.180;2022-11-20T16:16:36;6.60;76.60
70456;DHT22;57916;51.996;5.180;2022-11-20T16:19:03;6.60;76.70
70456;DHT22;57916;51.996;5.180;2022-11-20T16:21:31;6.60;76.80
70456;DHT22;57916;51.996;5.180;2022-11-20T16:24:03;6.60;76.90
70456;DHT22;57916;51.996;5.180;2022-11-20T16:26:32;6.60;76.90
70456;DHT22;57916;51.996;5.180;2022-11-20T16:29:00;6.60;77.00
70456;DHT22;57916;51.996;5.180;2022-11-20T16:31:27;6.70;77.00
70456;DHT22;57916;51.996;5.180;2022-11-20T16:33:55;6.70;77.10
70456;DHT22;57916;51.996;5.180;2022-11-20T16:36:25;6.70;77.10
70456;DHT22;57916;51.996;5.180;2022-11-20T16:39:01;6.70;77.10
70456;DHT22;57916;51.996;5.180;2022-11-20T16:41:30;6.80;77.30
70456;DHT22;57916;51.996;5.180;2022-11-20T16:43:59;6.80;77.20
70456;DHT22;57916;51.996;5.180;2022-11-20T16:46:29;6.80;77.20
70456;DHT22;57916;51.996;5.180;2022-11-20T16:49:01;6.80;77.20
70456;DHT22;57916;51.996;5.180;2022-11-20T16:51:30;6.80;77.40
70456;DHT22;57916;51.996;5.180;2022-11-20T16:54:01;6.90;77.50
70456;DHT22;57916;51.996;5.180;2022-11-20T16:56:28;6.90;77.40
70456;DHT22;57916;51.996;5.180;2022-11-20T16:58:57;7.00;77.40
70456;DHT22;57916;51.996;5.180;2022-11-20T17:01:26;7.00;77.30
70456;DHT22;57916;51.996;5.180;2022-11-20T17:04:03;7.10;77.30
70456;DHT22;57916;51.996;5.180;2022-11-20T17:06:32;7.10;77.30
70456;DHT22;57916;51.996;5.180;2022-11-20T17:09:00;7.20;77.20
70456;DHT22;57916;51.996;5.180;2022-11-20T17:11:27;7.30;77.10
70456;DHT22;57916;51.996;5.180;2022-11-20T17:13:57;7.30;77.10
70456;DHT22;57916;51.996;5.180;2022-11-20T17:16:34;7.30;77.10
70456;DHT22;57916;51.996;5.180;2022-11-20T17:19:02;7.40;76.90
70456;DHT22;57916;51.996;5.180;2022-11-20T17:21:32;7.50;76.80
70456;DHT22;57916;51.996;5.180;2022-11-20T17:24:06;7.60;76.60
70456;DHT22;57916;51.996;5.180;2022-11-20T17:26:35;7.70;76.40
70456;DHT22;57916;51.996;5.180;2022-11-20T17:29:09;7.70;76.00
70456;DHT22;57916;51.996;5.180;2022-11-20T17:31:37;7.80;75.80
70456;DHT22;57916;51.996;5.180;2022-11-20T17:34:06;7.80;75.60
70456;DHT22;57916;51.996;5.180;2022-11-20T17:36:33;7.70;75.60
70456;DHT22;57916;51.996;5.180;2022-11-20T17:39:00;7.60;75.80
70456;DHT22;57916;51.996;5.180;2022-11-20T17:41:28;7.50;76.00
70456;DHT22;57916;51.996;5.180;2022-11-20T17:43:57;7.50;76.40
70456;DHT22;57916;51.996;5.180;2022-11-20T17:46:27;7.60;76.60
70456;DHT22;57916;51.996;5.180;2022-11-20T17:48:55;7.60;76.50
70456;DHT22;57916;51.996;5.180;2022-11-20T17:51:27;7.70;76.10
70456;DHT22;57916;51.996;5.180;2022-11-20T17:53:57;7.70;76.00
70456;DHT22;57916;51.996;5.180;2022-11-20T17:56:24;7.80;75.90
70456;DHT22;57916;51.996;5.180;2022-11-20T17:59:12;7.90;75.80
70456;DHT22;57916;51.996;5.180;2022-11-20T18:01:39;8.00;75.50
70456;DHT22;57916;51.996;5.180;2022-11-20T18:04:10;8.00;75.10
70456;DHT22;57916;51.996;5.180;2022-11-20T18:06:37;8.10;75.00
70456;DHT22;57916;51.996;5.180;2022-11-20T18:09:05;8.10;74.80
70456;DHT22;57916;51.996;5.180;2022-11-20T18:11:35;8.20;74.70
70456;DHT22;57916;51.996;5.180;2022-11-20T18:14:04;8.20;74.50
70456;DHT22;57916;51.996;5.180;2022-11-20T18:16:53;8.30;74.30
70456;DHT22;57916;51.996;5.180;2022-11-20T18:19:26;8.30;74.90